createdAt,value
2018-01-28T00:00:30.145Z,1020.01
2018-01-28T00:01:30.091Z,1019.87
2018-01-28T00:02:30.060Z,1019.89
2018-01-28T00:03:30.040Z,1019.87
2018-01-28T00:04:30.018Z,1019.93
2018-01-28T00:05:30.009Z,1019.89
2018-01-28T00:06:29.976Z,1019.96
2018-01-28T00:07:29.954Z,1019.86
2018-01-28T00:08:29.929Z,1019.97
2018-01-28T00:09:29.920Z,1019.91
2018-01-28T00:10:29.883Z,1019.93
2018-01-28T00:11:29.863Z,1019.88
2018-01-28T00:12:29.851Z,1019.75
2018-01-28T00:13:29.818Z,1019.73
2018-01-28T00:14:29.808Z,1019.74
2018-01-28T00:15:29.784Z,1019.70
2018-01-28T00:16:29.747Z,1019.76
2018-01-28T00:17:29.731Z,1019.68
2018-01-28T00:18:29.708Z,1019.77
2018-01-28T00:19:29.708Z,1019.84
2018-01-28T00:20:29.652Z,1019.84
2018-01-28T00:21:29.634Z,1019.79
2018-01-28T00:22:29.622Z,1019.81
2018-01-28T00:23:29.587Z,1019.84
2018-01-28T00:24:29.567Z,1019.94
2018-01-28T00:25:29.567Z,1019.82
2018-01-28T00:26:29.515Z,1019.74
2018-01-28T00:27:29.496Z,1019.80
2018-01-28T00:28:29.477Z,1019.82
2018-01-28T00:29:29.470Z,1019.84
2018-01-28T00:30:29.432Z,1019.90
2018-01-28T00:31:29.416Z,1019.93
2018-01-28T00:32:29.389Z,1019.85
2018-01-28T00:33:29.415Z,1019.85
2018-01-28T00:34:29.339Z,1019.79
2018-01-28T00:35:29.318Z,1019.77
2018-01-28T00:36:29.296Z,1019.75
2018-01-28T00:37:29.281Z,1019.73
2018-01-28T00:38:29.252Z,1019.77
2018-01-28T00:39:29.223Z,1019.80
2018-01-28T00:40:29.203Z,1019.83
2018-01-28T00:41:29.185Z,1019.67
2018-01-28T00:42:29.163Z,1019.56
2018-01-28T00:43:29.154Z,1019.54
2018-01-28T00:44:29.114Z,1019.48
2018-01-28T00:45:29.095Z,1019.60
2018-01-28T00:46:29.085Z,1019.65
2018-01-28T00:47:29.050Z,1019.61
2018-01-28T00:48:29.023Z,1019.58
2018-01-28T00:49:29.006Z,1019.56
2018-01-28T00:50:28.983Z,1019.55
2018-01-28T00:51:28.956Z,1019.49
2018-01-28T00:52:28.961Z,1019.48
2018-01-28T00:53:28.914Z,1019.43
2018-01-28T00:54:28.890Z,1019.35
2018-01-28T00:55:28.940Z,1019.34
2018-01-28T00:56:28.852Z,1019.37
2018-01-28T00:57:28.822Z,1019.38
2018-01-28T00:58:28.906Z,1019.40
2018-01-28T00:59:28.787Z,1019.37
2018-01-28T01:00:28.753Z,1019.43
2018-01-28T01:01:28.733Z,1019.40
2018-01-28T01:02:28.714Z,1019.35
2018-01-28T01:03:28.686Z,1019.35
2018-01-28T01:04:28.672Z,1019.34
2018-01-28T01:05:28.651Z,1019.35
2018-01-28T01:06:28.618Z,1019.36
2018-01-28T01:07:28.617Z,1019.35
2018-01-28T01:08:28.581Z,1019.41
2018-01-28T01:09:28.554Z,1019.35
2018-01-28T01:10:28.541Z,1019.49
2018-01-28T01:11:28.514Z,1019.45
2018-01-28T01:12:28.481Z,1019.39
2018-01-28T01:13:28.460Z,1019.43
2018-01-28T01:14:28.440Z,1019.47
2018-01-28T01:15:28.412Z,1019.50
2018-01-28T01:16:28.391Z,1019.55
2018-01-28T01:17:28.384Z,1019.54
2018-01-28T01:18:28.357Z,1019.58
2018-01-28T01:19:28.326Z,1019.56
2018-01-28T01:20:28.302Z,1019.61
2018-01-28T01:21:28.287Z,1019.52
2018-01-28T01:22:28.264Z,1019.58
2018-01-28T01:23:28.241Z,1019.61
2018-01-28T01:24:28.237Z,1019.60
2018-01-28T01:25:28.208Z,1019.71
2018-01-28T01:26:28.175Z,1019.60
2018-01-28T01:27:28.150Z,1019.59
2018-01-28T01:28:28.157Z,1019.67
2018-01-28T01:29:28.098Z,1019.58
2018-01-28T01:30:28.084Z,1019.72
2018-01-28T01:31:28.059Z,1019.73
2018-01-28T01:32:28.030Z,1019.70
2018-01-28T01:33:28.010Z,1019.67
2018-01-28T01:34:27.986Z,1019.63
2018-01-28T01:35:27.964Z,1019.62
2018-01-28T01:36:27.942Z,1019.73
2018-01-28T01:37:27.929Z,1019.75
2018-01-28T01:38:27.900Z,1019.68
2018-01-28T01:39:27.877Z,1019.63
2018-01-28T01:40:27.859Z,1019.67
2018-01-28T01:41:27.830Z,1019.68
2018-01-28T01:42:27.806Z,1019.70
2018-01-28T01:43:27.792Z,1019.70
2018-01-28T01:44:27.760Z,1019.75
2018-01-28T01:45:27.738Z,1019.70
2018-01-28T01:46:27.715Z,1019.73
2018-01-28T01:47:27.732Z,1019.75
2018-01-28T01:48:27.671Z,1019.70
2018-01-28T01:49:27.650Z,1019.75
2018-01-28T01:50:27.659Z,1019.56
2018-01-28T01:51:27.605Z,1019.58
2018-01-28T01:52:27.584Z,1019.61
2018-01-28T01:53:27.610Z,1019.48
2018-01-28T01:54:27.534Z,1019.49
2018-01-28T01:55:27.524Z,1019.45
2018-01-28T01:56:27.494Z,1019.51
2018-01-28T01:57:27.477Z,1019.46
2018-01-28T01:58:27.456Z,1019.47
2018-01-28T01:59:27.426Z,1019.41
2018-01-28T02:00:27.403Z,1019.28
2018-01-28T02:01:27.385Z,1019.28
2018-01-28T02:02:27.367Z,1019.33
2018-01-28T02:03:27.336Z,1019.29
2018-01-28T02:04:27.315Z,1019.30
2018-01-28T02:05:27.293Z,1019.28
2018-01-28T02:06:27.278Z,1019.38
2018-01-28T02:07:27.246Z,1019.41
2018-01-28T02:08:27.233Z,1019.37
2018-01-28T02:09:27.203Z,1019.50
2018-01-28T02:10:27.179Z,1019.49
2018-01-28T02:11:27.157Z,1019.49
2018-01-28T02:12:27.136Z,1019.50
2018-01-28T02:13:27.113Z,1019.46
2018-01-28T02:14:27.087Z,1019.47
2018-01-28T02:15:27.066Z,1019.36
2018-01-28T02:16:27.045Z,1019.41
2018-01-28T02:17:27.035Z,1019.47
2018-01-28T02:18:27.002Z,1019.48
2018-01-28T02:19:26.977Z,1019.59
2018-01-28T02:20:26.971Z,1019.56
2018-01-28T02:21:26.941Z,1019.47
2018-01-28T02:22:26.910Z,1019.54
2018-01-28T02:23:26.915Z,1019.51
2018-01-28T02:24:26.868Z,1019.51
2018-01-28T02:25:26.854Z,1019.42
2018-01-28T02:26:26.824Z,1019.44
2018-01-28T02:27:26.801Z,1019.43
2018-01-28T02:28:26.784Z,1019.48
2018-01-28T02:29:26.756Z,1019.41
2018-01-28T02:30:26.732Z,1019.40
2018-01-28T02:31:26.729Z,1019.37
2018-01-28T02:32:26.690Z,1019.46
2018-01-28T02:33:26.666Z,1019.51
2018-01-28T02:34:26.647Z,1019.45
2018-01-28T02:35:26.619Z,1019.44
2018-01-28T02:36:26.600Z,1019.52
2018-01-28T02:37:26.574Z,1019.55
2018-01-28T02:38:26.563Z,1019.60
2018-01-28T02:39:26.531Z,1019.46
2018-01-28T02:40:26.509Z,1019.42
2018-01-28T02:41:26.493Z,1019.57
2018-01-28T02:42:26.463Z,1019.56
2018-01-28T02:43:26.440Z,1019.62
2018-01-28T02:44:26.420Z,1019.61
2018-01-28T02:45:26.411Z,1019.72
2018-01-28T02:46:26.377Z,1019.77
2018-01-28T02:47:26.353Z,1019.72
2018-01-28T02:48:26.348Z,1019.73
2018-01-28T02:49:26.311Z,1019.60
2018-01-28T02:50:26.295Z,1019.63
2018-01-28T02:51:26.278Z,1019.51
2018-01-28T02:52:26.244Z,1019.53
2018-01-28T02:53:26.219Z,1019.53
2018-01-28T02:54:26.197Z,1019.53
2018-01-28T02:55:26.174Z,1019.66
2018-01-28T02:56:26.157Z,1019.68
2018-01-28T02:57:26.130Z,1019.55
2018-01-28T02:58:26.106Z,1019.59
2018-01-28T02:59:26.139Z,1019.68
2018-01-28T03:00:26.061Z,1019.67
2018-01-28T03:01:26.041Z,1019.64
2018-01-28T03:02:26.016Z,1019.73
2018-01-28T03:03:25.996Z,1019.85
2018-01-28T03:04:25.979Z,1019.70
2018-01-28T03:05:25.959Z,1019.84
2018-01-28T03:06:25.931Z,1019.79
2018-01-28T03:07:25.909Z,1019.61
2018-01-28T03:08:25.885Z,1019.63
2018-01-28T03:09:25.864Z,1019.70
2018-01-28T03:10:25.840Z,1019.70
2018-01-28T03:11:25.816Z,1019.71
2018-01-28T03:12:25.795Z,1019.73
2018-01-28T03:13:25.775Z,1019.82
2018-01-28T03:14:25.749Z,1019.81
2018-01-28T03:15:25.730Z,1019.76
2018-01-28T03:16:25.710Z,1019.84
2018-01-28T03:17:25.687Z,1019.83
2018-01-28T03:18:25.822Z,1019.91
2018-01-28T03:19:25.640Z,1019.96
2018-01-28T03:20:25.625Z,1019.98
2018-01-28T03:21:25.661Z,1020.02
2018-01-28T03:22:25.573Z,1019.94
2018-01-28T03:23:25.552Z,1019.97
2018-01-28T03:24:25.533Z,1019.91
2018-01-28T03:25:25.509Z,1019.94
2018-01-28T03:26:25.490Z,1019.96
2018-01-28T03:27:25.462Z,1020.02
2018-01-28T03:28:25.441Z,1020.07
2018-01-28T03:29:25.417Z,1020.08
2018-01-28T03:30:25.394Z,1020.06
2018-01-28T03:31:25.374Z,1020.00
2018-01-28T03:32:25.355Z,1019.96
2018-01-28T03:33:25.340Z,1019.89
2018-01-28T03:34:25.310Z,1019.88
2018-01-28T03:35:25.285Z,1019.81
2018-01-28T03:36:25.263Z,1019.82
2018-01-28T03:37:25.250Z,1019.74
2018-01-28T03:38:25.215Z,1019.82
2018-01-28T03:39:25.196Z,1019.83
2018-01-28T03:40:25.187Z,1019.81
2018-01-28T03:41:25.153Z,1019.84
2018-01-28T03:42:25.130Z,1019.91
2018-01-28T03:43:25.180Z,1019.96
2018-01-28T03:44:25.085Z,1020.08
2018-01-28T03:45:25.066Z,1020.13
2018-01-28T03:46:25.045Z,1020.11
2018-01-28T03:47:25.027Z,1020.10
2018-01-28T03:48:25.118Z,1019.99
2018-01-28T03:49:24.981Z,1020.02
2018-01-28T03:50:24.955Z,1020.05
2018-01-28T03:51:25.016Z,1020.03
2018-01-28T03:52:24.910Z,1020.05
2018-01-28T03:53:24.898Z,1020.02
2018-01-28T03:54:24.876Z,1019.97
2018-01-28T03:55:24.845Z,1019.98
2018-01-28T03:56:24.824Z,1019.93
2018-01-28T03:57:24.801Z,1019.97
2018-01-28T03:58:24.778Z,1019.90
2018-01-28T03:59:24.759Z,1019.87
2018-01-28T04:00:24.736Z,1019.81
2018-01-28T04:01:24.722Z,1019.79
2018-01-28T04:02:24.690Z,1019.85
2018-01-28T04:03:24.671Z,1019.86
2018-01-28T04:04:24.648Z,1019.90
2018-01-28T04:05:24.628Z,1019.90
2018-01-28T04:06:24.611Z,1019.89
2018-01-28T04:07:24.580Z,1019.84
2018-01-28T04:08:24.560Z,1019.80
2018-01-28T04:09:24.536Z,1019.78
2018-01-28T04:10:24.518Z,1019.74
2018-01-28T04:11:24.497Z,1019.75
2018-01-28T04:12:24.471Z,1019.73
2018-01-28T04:13:24.592Z,1019.78
2018-01-28T04:14:24.437Z,1019.88
2018-01-28T04:15:24.407Z,1019.86
2018-01-28T04:16:24.488Z,1019.89
2018-01-28T04:17:24.366Z,1020.03
2018-01-28T04:18:24.341Z,1020.02
2018-01-28T04:19:24.326Z,1020.09
2018-01-28T04:20:24.298Z,1020.11
2018-01-28T04:21:24.275Z,1020.14
2018-01-28T04:22:24.256Z,1020.17
2018-01-28T04:23:24.230Z,1020.18
2018-01-28T04:24:24.210Z,1020.24
2018-01-28T04:25:24.186Z,1020.28
2018-01-28T04:26:24.168Z,1020.37
2018-01-28T04:27:24.144Z,1020.38
2018-01-28T04:28:24.124Z,1020.30
2018-01-28T04:29:24.104Z,1020.27
2018-01-28T04:30:24.079Z,1020.32
2018-01-28T04:31:24.059Z,1020.25
2018-01-28T04:32:24.035Z,1020.19
2018-01-28T04:33:24.025Z,1020.20
2018-01-28T04:34:23.994Z,1020.11
2018-01-28T04:35:23.968Z,1020.16
2018-01-28T04:36:23.975Z,1020.13
2018-01-28T04:37:23.925Z,1020.06
2018-01-28T04:38:23.903Z,1020.12
2018-01-28T04:39:23.885Z,1020.07
2018-01-28T04:40:23.863Z,1020.05
2018-01-28T04:41:23.843Z,1020.01
2018-01-28T04:42:23.815Z,1020.06
2018-01-28T04:43:23.808Z,1020.10
2018-01-28T04:44:23.773Z,1020.23
2018-01-28T04:45:23.751Z,1020.25
2018-01-28T04:46:23.799Z,1020.28
2018-01-28T04:47:23.711Z,1020.28
2018-01-28T04:48:23.684Z,1020.30
2018-01-28T04:49:23.671Z,1020.33
2018-01-28T04:50:23.643Z,1020.29
2018-01-28T04:51:23.620Z,1020.31
2018-01-28T04:52:23.606Z,1020.22
2018-01-28T04:53:23.584Z,1020.25
2018-01-28T04:54:23.554Z,1020.38
2018-01-28T04:55:23.534Z,1020.38
2018-01-28T04:56:23.512Z,1020.50
2018-01-28T04:57:23.491Z,1020.46
2018-01-28T04:58:23.465Z,1020.45
2018-01-28T04:59:23.446Z,1020.53
2018-01-28T05:00:23.423Z,1020.48
2018-01-28T05:01:23.413Z,1020.49
2018-01-28T05:02:23.380Z,1020.44
2018-01-28T05:03:23.361Z,1020.41
2018-01-28T05:04:23.340Z,1020.41
2018-01-28T05:05:23.315Z,1020.36
2018-01-28T05:06:23.303Z,1020.38
2018-01-28T05:07:23.274Z,1020.30
2018-01-28T05:08:23.348Z,1020.33
2018-01-28T05:09:23.229Z,1020.31
2018-01-28T05:10:23.209Z,1020.46
2018-01-28T05:11:23.225Z,1020.43
2018-01-28T05:12:23.163Z,1020.48
2018-01-28T05:13:23.142Z,1020.51
2018-01-28T05:14:23.125Z,1020.48
2018-01-28T05:15:23.109Z,1020.57
2018-01-28T05:16:23.079Z,1020.50
2018-01-28T05:17:23.059Z,1020.42
2018-01-28T05:18:23.033Z,1020.39
2018-01-28T05:19:23.011Z,1020.37
2018-01-28T05:20:22.990Z,1020.46
2018-01-28T05:21:22.967Z,1020.45
2018-01-28T05:22:22.949Z,1020.42
2018-01-28T05:23:22.927Z,1020.49
2018-01-28T05:24:22.902Z,1020.56
2018-01-28T05:25:22.887Z,1020.49
2018-01-28T05:26:22.858Z,1020.55
2018-01-28T05:27:22.838Z,1020.46
2018-01-28T05:28:22.816Z,1020.45
2018-01-28T05:29:22.796Z,1020.45
2018-01-28T05:30:22.772Z,1020.43
2018-01-28T05:31:22.751Z,1020.40
2018-01-28T05:32:22.730Z,1020.42
2018-01-28T05:33:22.710Z,1020.44
2018-01-28T05:34:22.695Z,1020.38
2018-01-28T05:35:22.666Z,1020.39
2018-01-28T05:36:22.646Z,1020.38
2018-01-28T05:37:22.623Z,1020.36
2018-01-28T05:38:22.693Z,1020.27
2018-01-28T05:39:22.580Z,1020.14
2018-01-28T05:40:22.558Z,1020.17
2018-01-28T05:41:22.586Z,1020.15
2018-01-28T05:42:22.528Z,1020.23
2018-01-28T05:43:22.498Z,1020.34
2018-01-28T05:44:22.475Z,1020.42
2018-01-28T05:45:22.450Z,1020.48
2018-01-28T05:46:22.439Z,1020.48
2018-01-28T05:47:22.406Z,1020.53
2018-01-28T05:48:22.384Z,1020.51
2018-01-28T05:49:22.364Z,1020.50
2018-01-28T05:50:22.345Z,1020.59
2018-01-28T05:51:22.319Z,1020.63
2018-01-28T05:52:22.299Z,1020.64
2018-01-28T05:53:22.276Z,1020.69
2018-01-28T05:54:22.255Z,1020.82
2018-01-28T05:55:22.235Z,1020.86
2018-01-28T05:56:22.213Z,1020.98
2018-01-28T05:57:22.191Z,1020.88
2018-01-28T05:58:22.173Z,1020.91
2018-01-28T05:59:22.148Z,1020.89
2018-01-28T06:00:22.148Z,1020.82
2018-01-28T06:01:22.105Z,1020.92
2018-01-28T06:02:22.083Z,1021.02
2018-01-28T06:03:22.173Z,1020.95
2018-01-28T06:04:22.042Z,1020.96
2018-01-28T06:05:22.019Z,1020.94
2018-01-28T06:06:22.004Z,1021.04
2018-01-28T06:07:21.974Z,1020.99
2018-01-28T06:08:21.963Z,1020.99
2018-01-28T06:09:21.934Z,1021.02
2018-01-28T06:10:21.912Z,1021.10
2018-01-28T06:11:21.925Z,1021.11
2018-01-28T06:12:21.867Z,1021.12
2018-01-28T06:13:21.847Z,1021.17
2018-01-28T06:14:21.835Z,1021.21
2018-01-28T06:15:21.803Z,1021.20
2018-01-28T06:16:21.790Z,1021.24
2018-01-28T06:17:21.819Z,1021.29
2018-01-28T06:18:21.744Z,1021.17
2018-01-28T06:19:21.719Z,1021.15
2018-01-28T06:20:21.703Z,1021.14
2018-01-28T06:21:21.674Z,1021.17
2018-01-28T06:22:21.652Z,1021.16
2018-01-28T06:23:21.632Z,1021.16
2018-01-28T06:24:21.608Z,1021.09
2018-01-28T06:25:21.590Z,1021.18
2018-01-28T06:26:21.566Z,1021.18
2018-01-28T06:27:21.544Z,1021.15
2018-01-28T06:28:21.523Z,1021.15
2018-01-28T06:29:21.504Z,1021.14
2018-01-28T06:30:21.482Z,1021.10
2018-01-28T06:31:21.462Z,1021.13
2018-01-28T06:32:21.436Z,1021.14
2018-01-28T06:33:21.489Z,1021.10
2018-01-28T06:34:21.398Z,1021.09
2018-01-28T06:35:21.373Z,1021.07
2018-01-28T06:36:21.364Z,1021.16
2018-01-28T06:37:21.333Z,1021.20
2018-01-28T06:38:21.311Z,1021.19
2018-01-28T06:39:21.289Z,1021.22
2018-01-28T06:40:21.278Z,1021.26
2018-01-28T06:41:21.247Z,1021.30
2018-01-28T06:42:21.228Z,1021.27
2018-01-28T06:43:21.206Z,1021.26
2018-01-28T06:44:21.183Z,1021.18
2018-01-28T06:45:21.163Z,1021.10
2018-01-28T06:46:21.138Z,1021.08
2018-01-28T06:47:21.118Z,1021.11
2018-01-28T06:48:21.097Z,1021.05
2018-01-28T06:49:21.078Z,1021.12
2018-01-28T06:50:21.056Z,1021.16
2018-01-28T06:51:21.031Z,1021.07
2018-01-28T06:52:21.016Z,1021.16
2018-01-28T06:53:20.990Z,1021.12
2018-01-28T06:54:20.968Z,1021.21
2018-01-28T06:55:20.961Z,1021.29
2018-01-28T06:56:20.925Z,1021.27
2018-01-28T06:57:20.911Z,1021.30
2018-01-28T06:58:20.985Z,1021.35
2018-01-28T06:59:20.865Z,1021.36
2018-01-28T07:00:20.839Z,1021.40
2018-01-28T07:01:20.821Z,1021.45
2018-01-28T07:02:20.802Z,1021.48
2018-01-28T07:03:20.790Z,1021.39
2018-01-28T07:04:20.761Z,1021.45
2018-01-28T07:05:20.738Z,1021.40
2018-01-28T07:06:20.824Z,1021.45
2018-01-28T07:07:20.689Z,1021.46
2018-01-28T07:08:20.668Z,1021.44
2018-01-28T07:09:20.706Z,1021.54
2018-01-28T07:10:20.625Z,1021.58
2018-01-28T07:11:20.602Z,1021.61
2018-01-28T07:12:20.592Z,1021.52
2018-01-28T07:13:20.565Z,1021.59
2018-01-28T07:14:20.541Z,1021.59
2018-01-28T07:15:20.528Z,1021.60
2018-01-28T07:16:20.497Z,1021.58
2018-01-28T07:17:20.474Z,1021.53
2018-01-28T07:18:20.458Z,1021.57
2018-01-28T07:19:20.432Z,1021.58
2018-01-28T07:20:20.413Z,1021.54
2018-01-28T07:21:20.399Z,1021.56
2018-01-28T07:22:20.367Z,1021.59
2018-01-28T07:23:20.346Z,1021.65
2018-01-28T07:24:20.333Z,1021.64
2018-01-28T07:25:20.306Z,1021.73
2018-01-28T07:26:20.282Z,1021.71
2018-01-28T07:27:20.260Z,1021.73
2018-01-28T07:28:20.324Z,1021.78
2018-01-28T07:29:20.222Z,1021.81
2018-01-28T07:30:20.196Z,1021.86
2018-01-28T07:31:20.194Z,1021.86
2018-01-28T07:32:20.157Z,1021.87
2018-01-28T07:33:20.132Z,1021.86
2018-01-28T07:34:20.115Z,1021.89
2018-01-28T07:35:20.092Z,1021.94
2018-01-28T07:36:20.119Z,1021.94
2018-01-28T07:37:20.051Z,1021.90
2018-01-28T07:38:20.026Z,1021.96
2018-01-28T07:39:20.010Z,1021.98
2018-01-28T07:40:19.994Z,1021.99
2018-01-28T07:41:19.965Z,1021.99
2018-01-28T07:42:19.941Z,1021.93
2018-01-28T07:43:19.921Z,1021.99
2018-01-28T07:44:19.899Z,1021.94
2018-01-28T07:45:19.878Z,1021.88
2018-01-28T07:46:19.867Z,1021.92
2018-01-28T07:47:19.838Z,1021.94
2018-01-28T07:48:19.823Z,1021.89
2018-01-28T07:49:19.793Z,1021.97
2018-01-28T07:50:19.770Z,1021.99
2018-01-28T07:51:19.750Z,1022.05
2018-01-28T07:52:19.738Z,1022.00
2018-01-28T07:53:19.718Z,1022.03
2018-01-28T07:54:19.688Z,1022.02
2018-01-28T07:55:19.668Z,1022.03
2018-01-28T07:56:19.657Z,1022.07
2018-01-28T07:57:19.627Z,1022.03
2018-01-28T07:58:19.798Z,1022.02
2018-01-28T07:59:19.580Z,1022.10
2018-01-28T08:00:19.563Z,1022.05
2018-01-28T08:01:19.545Z,1022.11
2018-01-28T08:02:19.519Z,1022.04
2018-01-28T08:03:19.500Z,1022.03
2018-01-28T08:04:19.479Z,1022.00
2018-01-28T08:05:19.458Z,1021.97
2018-01-28T08:06:19.443Z,1021.90
2018-01-28T08:07:19.422Z,1021.98
2018-01-28T08:08:19.395Z,1021.96
2018-01-28T08:09:19.375Z,1022.03
2018-01-28T08:10:19.354Z,1021.97
2018-01-28T08:11:19.334Z,1021.98
2018-01-28T08:12:19.309Z,1021.99
2018-01-28T08:13:19.292Z,1021.88
2018-01-28T08:14:19.267Z,1021.93
2018-01-28T08:15:19.254Z,1021.95
2018-01-28T08:16:19.229Z,1021.85
2018-01-28T08:17:19.213Z,1021.84
2018-01-28T08:18:19.207Z,1021.84
2018-01-28T08:19:19.163Z,1021.82
2018-01-28T08:20:19.157Z,1021.88
2018-01-28T08:21:19.124Z,1021.88
2018-01-28T08:22:19.100Z,1021.83
2018-01-28T08:23:19.087Z,1021.84
2018-01-28T08:24:19.058Z,1021.90
2018-01-28T08:25:19.039Z,1021.87
2018-01-28T08:26:19.026Z,1021.84
2018-01-28T08:27:18.995Z,1021.88
2018-01-28T08:28:18.975Z,1021.92
2018-01-28T08:29:18.965Z,1021.90
2018-01-28T08:30:18.938Z,1021.92
2018-01-28T08:31:18.914Z,1021.93
2018-01-28T08:32:18.892Z,1022.01
2018-01-28T08:33:18.900Z,1021.99
2018-01-28T08:34:18.855Z,1022.02
2018-01-28T08:35:18.833Z,1022.07
2018-01-28T08:36:18.812Z,1022.06
2018-01-28T08:37:18.811Z,1022.05
2018-01-28T08:38:18.768Z,1022.04
2018-01-28T08:39:18.747Z,1022.04
2018-01-28T08:40:18.730Z,1022.00
2018-01-28T08:41:18.708Z,1021.99
2018-01-28T08:42:18.684Z,1021.93
2018-01-28T08:43:18.671Z,1021.95
2018-01-28T08:44:18.646Z,1021.92
2018-01-28T08:45:18.633Z,1021.97
2018-01-28T08:46:18.613Z,1022.02
2018-01-28T08:47:18.584Z,1022.06
2018-01-28T08:48:18.563Z,1022.07
2018-01-28T08:49:18.542Z,1022.07
2018-01-28T08:50:18.599Z,1022.13
2018-01-28T08:51:18.499Z,1022.10
2018-01-28T08:52:18.483Z,1022.09
2018-01-28T08:53:18.474Z,1022.07
2018-01-28T08:54:18.440Z,1022.12
2018-01-28T08:55:18.430Z,1022.10
2018-01-28T08:56:18.402Z,1022.13
2018-01-28T08:57:18.387Z,1022.16
2018-01-28T08:58:18.357Z,1022.13
2018-01-28T08:59:18.334Z,1022.20
2018-01-28T09:00:18.313Z,1022.14
2018-01-28T09:01:18.303Z,1022.15
2018-01-28T09:02:18.274Z,1022.19
2018-01-28T09:03:18.252Z,1022.10
2018-01-28T09:04:18.240Z,1022.14
2018-01-28T09:05:18.214Z,1022.10
2018-01-28T09:06:18.195Z,1022.08
2018-01-28T09:07:18.171Z,1022.12
2018-01-28T09:08:18.149Z,1022.10
2018-01-28T09:09:18.133Z,1022.18
2018-01-28T09:10:18.118Z,1022.12
2018-01-28T09:11:18.098Z,1022.14
2018-01-28T09:12:18.084Z,1022.19
2018-01-28T09:13:18.050Z,1022.24
2018-01-28T09:14:18.037Z,1022.17
2018-01-28T09:15:18.057Z,1022.23
2018-01-28T09:16:18.000Z,1022.31
2018-01-28T09:17:17.966Z,1022.27
2018-01-28T09:18:17.999Z,1022.24
2018-01-28T09:19:17.928Z,1022.25
2018-01-28T09:20:17.906Z,1022.28
2018-01-28T09:21:17.887Z,1022.38
2018-01-28T09:22:17.876Z,1022.36
2018-01-28T09:23:17.859Z,1022.33
2018-01-28T09:24:17.843Z,1022.36
2018-01-28T09:25:17.811Z,1022.44
2018-01-28T09:26:17.789Z,1022.50
2018-01-28T09:27:17.766Z,1022.50
2018-01-28T09:28:17.748Z,1022.53
2018-01-28T09:29:17.742Z,1022.53
2018-01-28T09:30:17.710Z,1022.55
2018-01-28T09:31:17.681Z,1022.50
2018-01-28T09:32:17.669Z,1022.54
2018-01-28T09:33:17.659Z,1022.45
2018-01-28T09:34:17.635Z,1022.47
2018-01-28T09:35:17.605Z,1022.48
2018-01-28T09:36:17.592Z,1022.52
2018-01-28T09:37:17.573Z,1022.51
2018-01-28T09:38:17.548Z,1022.51
2018-01-28T09:39:17.519Z,1022.49
2018-01-28T09:40:17.498Z,1022.45
2018-01-28T09:41:17.480Z,1022.47
2018-01-28T09:42:17.469Z,1022.56
2018-01-28T09:43:17.439Z,1022.55
2018-01-28T09:44:17.418Z,1022.60
2018-01-28T09:45:17.424Z,1022.60
2018-01-28T09:46:17.383Z,1022.65
2018-01-28T09:47:17.355Z,1022.55
2018-01-28T09:48:17.339Z,1022.57
2018-01-28T09:49:17.315Z,1022.64
2018-01-28T09:50:17.295Z,1022.63
2018-01-28T09:51:17.275Z,1022.70
2018-01-28T09:52:17.272Z,1022.64
2018-01-28T09:53:17.253Z,1022.70
2018-01-28T09:54:17.213Z,1022.63
2018-01-28T09:55:17.195Z,1022.59
2018-01-28T09:56:17.175Z,1022.63
2018-01-28T09:57:17.166Z,1022.64
2018-01-28T09:58:17.143Z,1022.59
2018-01-28T09:59:17.126Z,1022.59
2018-01-28T10:00:17.102Z,1022.52
2018-01-28T10:01:17.080Z,1022.52
2018-01-28T10:02:17.053Z,1022.45
2018-01-28T10:03:17.040Z,1022.43
2018-01-28T10:04:17.086Z,1022.40
2018-01-28T10:05:16.991Z,1022.44
2018-01-28T10:06:16.970Z,1022.45
2018-01-28T10:07:17.060Z,1022.44
2018-01-28T10:08:16.930Z,1022.56
2018-01-28T10:09:16.910Z,1022.58
2018-01-28T10:10:16.947Z,1022.68
2018-01-28T10:11:16.872Z,1022.71
2018-01-28T10:12:16.850Z,1022.66
2018-01-28T10:13:16.832Z,1022.62
2018-01-28T10:14:16.810Z,1022.63
2018-01-28T10:15:16.789Z,1022.58
2018-01-28T10:16:16.786Z,1022.61
2018-01-28T10:17:16.749Z,1022.61
2018-01-28T10:18:16.740Z,1022.60
2018-01-28T10:19:16.715Z,1022.61
2018-01-28T10:20:16.691Z,1022.61
2018-01-28T10:21:16.672Z,1022.68
2018-01-28T10:22:16.654Z,1022.65
2018-01-28T10:23:16.641Z,1022.60
2018-01-28T10:24:16.613Z,1022.68
2018-01-28T10:25:16.593Z,1022.71
2018-01-28T10:26:16.571Z,1022.79
2018-01-28T10:27:16.557Z,1022.81
2018-01-28T10:28:16.544Z,1022.82
2018-01-28T10:29:16.518Z,1022.80
2018-01-28T10:30:16.500Z,1022.73
2018-01-28T10:31:16.472Z,1022.66
2018-01-28T10:32:16.463Z,1022.61
2018-01-28T10:33:16.436Z,1022.64
2018-01-28T10:34:16.416Z,1022.70
2018-01-28T10:35:16.400Z,1022.68
2018-01-28T10:36:16.383Z,1022.64
2018-01-28T10:37:16.420Z,1022.64
2018-01-28T10:38:16.358Z,1022.57
2018-01-28T10:39:16.326Z,1022.59
2018-01-28T10:40:16.347Z,1022.58
2018-01-28T10:41:16.271Z,1022.62
2018-01-28T10:42:16.256Z,1022.64
2018-01-28T10:43:16.237Z,1022.63
2018-01-28T10:44:16.216Z,1022.62
2018-01-28T10:45:16.199Z,1022.57
2018-01-28T10:46:16.172Z,1022.58
2018-01-28T10:47:16.156Z,1022.56
2018-01-28T10:48:16.150Z,1022.62
2018-01-28T10:49:16.135Z,1022.61
2018-01-28T10:50:16.100Z,1022.69
2018-01-28T10:51:16.078Z,1022.58
2018-01-28T10:52:16.058Z,1022.66
2018-01-28T10:53:16.037Z,1022.62
2018-01-28T10:54:16.025Z,1022.58
2018-01-28T10:55:16.005Z,1022.55
2018-01-28T10:56:15.992Z,1022.54
2018-01-28T10:57:15.970Z,1022.58
2018-01-28T10:58:15.939Z,1022.60
2018-01-28T10:59:16.020Z,1022.61
2018-01-28T11:00:15.905Z,1022.58
2018-01-28T11:01:15.880Z,1022.57
2018-01-28T11:02:15.866Z,1022.56
2018-01-28T11:03:15.837Z,1022.50
2018-01-28T11:04:15.825Z,1022.50
2018-01-28T11:05:15.804Z,1022.57
2018-01-28T11:06:15.782Z,1022.50
2018-01-28T11:07:15.847Z,1022.51
2018-01-28T11:08:15.743Z,1022.51
2018-01-28T11:09:15.722Z,1022.51
2018-01-28T11:10:15.711Z,1022.47
2018-01-28T11:11:15.692Z,1022.49
2018-01-28T11:12:15.663Z,1022.52
2018-01-28T11:13:15.643Z,1022.58
2018-01-28T11:14:15.621Z,1022.50
2018-01-28T11:15:15.604Z,1022.53
2018-01-28T11:16:15.593Z,1022.55
2018-01-28T11:17:15.564Z,1022.59
2018-01-28T11:18:15.549Z,1022.63
2018-01-28T11:19:15.533Z,1022.70
2018-01-28T11:20:15.507Z,1022.59
2018-01-28T11:21:15.492Z,1022.65
2018-01-28T11:22:15.472Z,1022.71
2018-01-28T11:23:15.455Z,1022.73
2018-01-28T11:24:15.433Z,1022.79
2018-01-28T11:25:15.414Z,1022.71
2018-01-28T11:26:15.403Z,1022.75
2018-01-28T11:27:15.373Z,1022.74
2018-01-28T11:28:15.387Z,1022.78
2018-01-28T11:29:15.528Z,1022.71
2018-01-28T11:30:15.315Z,1022.74
2018-01-28T11:31:15.307Z,1022.70
2018-01-28T11:32:15.304Z,1022.73
2018-01-28T11:33:15.258Z,1022.74
2018-01-28T11:34:15.297Z,1022.69
2018-01-28T11:35:15.221Z,1022.73
2018-01-28T11:36:15.211Z,1022.71
2018-01-28T11:37:15.182Z,1022.72
2018-01-28T11:38:15.165Z,1022.70
2018-01-28T11:39:15.145Z,1022.70
2018-01-28T11:40:15.135Z,1022.69
2018-01-28T11:41:15.110Z,1022.68
2018-01-28T11:42:15.090Z,1022.68
2018-01-28T11:43:15.069Z,1022.66
2018-01-28T11:44:15.056Z,1022.72
2018-01-28T11:45:15.031Z,1022.71
2018-01-28T11:46:15.010Z,1022.71
2018-01-28T11:47:15.006Z,1022.64
2018-01-28T11:48:15.028Z,1022.67
2018-01-28T11:49:14.957Z,1022.64
2018-01-28T11:50:14.944Z,1022.61
2018-01-28T11:51:14.916Z,1022.63
2018-01-28T11:52:14.907Z,1022.67
2018-01-28T11:53:14.887Z,1022.68
2018-01-28T11:54:14.877Z,1022.72
2018-01-28T11:55:14.845Z,1022.80
2018-01-28T11:56:14.906Z,1022.76
2018-01-28T11:57:14.814Z,1022.81
2018-01-28T11:58:14.788Z,1022.84
2018-01-28T11:59:14.858Z,1022.83
2018-01-28T12:00:14.752Z,1022.79
2018-01-28T12:01:14.736Z,1022.80
2018-01-28T12:02:14.717Z,1022.79
2018-01-28T12:03:14.696Z,1022.69
2018-01-28T12:04:14.676Z,1022.73
2018-01-28T12:05:14.682Z,1022.72